Time;durP1;ratioP1;P1;durP2;ratioP2;P2;SDS_P1;SDS_P2;PMS_P1;PMS_P2;Temp;Humidity;BMP_temperature;BMP_pressure;BME280_temperature;BME280_humidity;BME280_pressure;Samples;Min_cycle;Max_cycle;Signal;HPM_P1;HPM_P2
2022/04/23 00:01:39;;;;;;;14.63;10.77;;;8.70;99.90;;;;;;4970856;28;20236;-71
2022/04/23 00:04:06;;;;;;;13.83;11.03;;;8.70;99.90;;;;;;4958625;28;20260;-72
2022/04/23 00:06:33;;;;;;;13.33;10.57;;;8.70;99.90;;;;;;4966832;28;20228;-69
2022/04/23 00:09:00;;;;;;;14.40;11.03;;;8.70;99.90;;;;;;4962102;28;20245;-70
2022/04/23 00:11:27;;;;;;;13.40;10.57;;;8.70;99.90;;;;;;4957824;28;20201;-70
2022/04/23 00:13:55;;;;;;;13.10;10.27;;;8.60;99.90;;;;;;4965243;28;20311;-70
2022/04/23 00:16:24;;;;;;;13.60;10.87;;;8.60;99.90;;;;;;4963667;28;20244;-72
2022/04/23 00:18:51;;;;;;;16.73;10.43;;;8.60;99.90;;;;;;4970877;28;20211;-71
2022/04/23 00:21:19;;;;;;;15.37;10.67;;;8.60;99.90;;;;;;4959104;28;20233;-69
2022/04/23 00:23:46;;;;;;;13.90;10.90;;;8.60;99.90;;;;;;4957866;28;20535;-70
2022/04/23 00:26:13;;;;;;;12.60;10.47;;;8.60;99.90;;;;;;4968210;28;20374;-71
2022/04/23 00:28:40;;;;;;;15.27;11.93;;;8.60;99.90;;;;;;4965955;28;20213;-71
2022/04/23 00:31:07;;;;;;;13.50;10.50;;;8.70;99.90;;;;;;4973806;28;20208;-71
2022/04/23 00:33:38;;;;;;;13.50;10.73;;;8.60;99.90;;;;;;4960611;28;20297;-71
2022/04/23 00:36:05;;;;;;;13.37;10.67;;;8.70;99.90;;;;;;4975330;28;20215;-71
2022/04/23 00:38:33;;;;;;;15.83;11.20;;;8.60;99.90;;;;;;4956648;28;20289;-71
2022/04/23 00:41:00;;;;;;;14.97;11.20;;;8.60;99.90;;;;;;4957294;28;20240;-71
2022/04/23 00:43:28;;;;;;;14.23;11.00;;;8.60;99.90;;;;;;4957342;28;20213;-70
2022/04/23 00:45:57;;;;;;;15.80;10.97;;;8.60;99.90;;;;;;4966079;28;20795;-70
2022/04/23 00:48:26;;;;;;;13.27;10.60;;;8.60;99.90;;;;;;4967672;28;20304;-71
2022/04/23 00:50:56;;;;;;;13.73;10.87;;;8.60;99.90;;;;;;4956926;28;20647;-70
2022/04/23 00:53:24;;;;;;;14.70;11.10;;;8.60;99.90;;;;;;4956971;28;20217;-71
2022/04/23 00:55:52;;;;;;;16.10;11.40;;;8.60;99.90;;;;;;4960321;28;20607;-71
2022/04/23 00:58:20;;;;;;;12.73;10.77;;;8.60;99.90;;;;;;4962505;28;20201;-70
2022/04/23 01:00:47;;;;;;;15.03;11.67;;;8.60;99.90;;;;;;4962897;28;20229;-72
2022/04/23 01:03:15;;;;;;;14.87;10.07;;;8.60;99.90;;;;;;4963044;28;20204;-72
2022/04/23 01:05:44;;;;;;;13.90;10.53;;;8.60;99.90;;;;;;4958200;28;20907;-71
2022/04/23 01:08:15;;;;;;;14.80;11.40;;;8.60;99.90;;;;;;4966440;28;20213;-71
2022/04/23 01:10:43;;;;;;;13.67;10.70;;;8.60;99.90;;;;;;4958802;28;20745;-71
2022/04/23 01:13:11;;;;;;;14.30;10.63;;;8.60;99.90;;;;;;4968296;28;20217;-71
2022/04/23 01:15:38;;;;;;;12.30;9.80;;;8.60;99.90;;;;;;4973075;28;20665;-70
2022/04/23 01:18:05;;;;;;;15.20;10.70;;;8.60;99.90;;;;;;4958520;28;20221;-71
2022/04/23 01:20:34;;;;;;;11.07;9.70;;;8.60;99.90;;;;;;4959150;28;20300;-72
2022/04/23 01:23:01;;;;;;;13.03;10.27;;;8.70;99.90;;;;;;4959961;28;20201;-71
2022/04/23 01:25:30;;;;;;;13.47;10.33;;;8.70;99.90;;;;;;4959189;28;20209;-71
2022/04/23 01:27:57;;;;;;;13.13;9.90;;;8.70;99.90;;;;;;4958052;28;20225;-70
2022/04/23 01:30:24;;;;;;;11.17;9.67;;;8.70;99.90;;;;;;4959010;28;20229;-71
2022/04/23 01:32:51;;;;;;;12.67;9.70;;;8.70;99.90;;;;;;4972249;28;20308;-70
2022/04/23 01:35:18;;;;;;;14.53;9.87;;;8.70;99.90;;;;;;4974576;28;20247;-70
2022/04/23 01:37:46;;;;;;;12.40;9.73;;;8.80;99.90;;;;;;4971159;28;20582;-72
2022/04/23 01:40:13;;;;;;;10.80;9.37;;;8.80;99.90;;;;;;4964708;28;20244;-71
2022/04/23 01:42:40;;;;;;;11.47;9.60;;;8.70;99.90;;;;;;4965912;28;20675;-66
2022/04/23 01:45:08;;;;;;;12.23;9.60;;;8.70;99.90;;;;;;4958637;28;20234;-67
2022/04/23 01:47:35;;;;;;;15.43;10.83;;;8.70;99.90;;;;;;4958808;28;20740;-67
2022/04/23 01:50:02;;;;;;;11.13;9.60;;;8.70;99.90;;;;;;4959374;28;20233;-67
2022/04/23 01:52:29;;;;;;;12.93;10.43;;;8.70;99.90;;;;;;4959625;28;20316;-67
2022/04/23 01:54:57;;;;;;;13.57;10.60;;;8.70;99.90;;;;;;4959422;28;20253;-67
2022/04/23 01:57:24;;;;;;;12.30;9.90;;;8.70;99.90;;;;;;4964198;28;20247;-67
2022/04/23 01:59:51;;;;;;;12.37;9.53;;;8.70;99.90;;;;;;4959033;28;20288;-67
2022/04/23 02:02:18;;;;;;;15.27;10.23;;;8.70;99.90;;;;;;4965012;28;20256;-67
2022/04/23 02:04:45;;;;;;;12.53;9.83;;;8.70;99.90;;;;;;4977369;28;20737;-67
2022/04/23 02:07:12;;;;;;;14.57;11.00;;;8.70;99.90;;;;;;4972533;28;20213;-68
2022/04/23 02:09:38;;;;;;;12.43;10.27;;;8.60;99.90;;;;;;4971723;28;20224;-66
2022/04/23 02:12:08;;;;;;;13.17;9.80;;;8.60;99.90;;;;;;4958808;28;20300;-67
2022/04/23 02:14:35;;;;;;;14.60;11.50;;;8.60;99.90;;;;;;4958677;28;20241;-67
2022/04/23 02:17:03;;;;;;;12.27;10.30;;;8.60;99.90;;;;;;4967749;28;20204;-66
2022/04/23 02:19:30;;;;;;;15.13;10.90;;;8.60;99.90;;;;;;4959696;28;20268;-66
2022/04/23 02:21:57;;;;;;;13.73;10.57;;;8.60;99.90;;;;;;4958464;28;20263;-67
2022/04/23 02:24:23;;;;;;;11.03;9.70;;;8.60;99.90;;;;;;4958457;28;20757;-68
2022/04/23 02:26:50;;;;;;;13.20;10.73;;;8.60;99.90;;;;;;4958037;28;20296;-66
2022/04/23 02:29:18;;;;;;;14.60;10.60;;;8.60;99.90;;;;;;4962397;28;20287;-67
2022/04/23 02:31:45;;;;;;;13.80;10.97;;;8.60;99.90;;;;;;4958712;28;20228;-68
2022/04/23 02:34:12;;;;;;;13.77;10.60;;;8.50;99.90;;;;;;4966434;28;20305;-67
2022/04/23 02:36:39;;;;;;;15.57;11.37;;;8.60;99.90;;;;;;4963709;28;20653;-67
2022/04/23 02:39:06;;;;;;;14.93;11.50;;;8.50;99.90;;;;;;4965883;28;20299;-68
2022/04/23 02:41:33;;;;;;;13.43;10.07;;;8.50;99.90;;;;;;4961304;28;20795;-66
2022/04/23 02:44:00;;;;;;;14.10;10.60;;;8.50;99.90;;;;;;4958253;28;20675;-67
2022/04/23 02:46:28;;;;;;;13.20;10.47;;;8.50;99.90;;;;;;4958684;28;20205;-68
2022/04/23 02:48:55;;;;;;;11.67;9.97;;;8.40;99.90;;;;;;4964629;28;20214;-68
2022/04/23 02:51:22;;;;;;;13.63;10.43;;;8.40;99.90;;;;;;4958299;28;20564;-67
2022/04/23 02:53:49;;;;;;;15.13;11.27;;;8.40;99.90;;;;;;4956536;28;20264;-68
2022/04/23 02:56:19;;;;;;;15.00;11.10;;;8.40;99.90;;;;;;4959489;28;20201;-68
2022/04/23 02:58:45;;;;;;;12.07;10.07;;;8.40;99.90;;;;;;4964676;28;20232;-68
2022/04/23 03:01:12;;;;;;;12.20;10.50;;;8.40;99.90;;;;;;4957954;28;20316;-67
2022/04/23 03:03:41;;;;;;;15.00;10.77;;;8.50;99.90;;;;;;4956454;28;20305;-67
2022/04/23 03:06:08;;;;;;;13.77;11.73;;;8.50;99.90;;;;;;4962740;28;20248;-67
2022/04/23 03:08:38;;;;;;;14.37;11.70;;;8.50;99.90;;;;;;4975775;28;20292;-67
2022/04/23 03:11:06;;;;;;;11.97;10.63;;;8.50;99.90;;;;;;4960208;28;20217;-67
2022/04/23 03:13:35;;;;;;;13.23;10.70;;;8.50;99.90;;;;;;4958240;28;20220;-67
2022/04/23 03:16:03;;;;;;;13.03;11.20;;;8.50;99.90;;;;;;4957780;28;20235;-68
2022/04/23 03:18:29;;;;;;;13.47;10.73;;;8.50;99.90;;;;;;4957294;28;20654;-67
2022/04/23 03:20:59;;;;;;;13.43;10.77;;;8.50;99.90;;;;;;4958830;28;20265;-67
2022/04/23 03:23:27;;;;;;;12.53;10.17;;;8.50;99.90;;;;;;4962776;28;20205;-67
2022/04/23 03:25:54;;;;;;;13.37;10.47;;;8.60;99.90;;;;;;4957889;28;20217;-68
2022/04/23 03:28:22;;;;;;;13.87;10.97;;;8.60;99.90;;;;;;4957772;28;20260;-67
2022/04/23 03:30:49;;;;;;;13.30;10.63;;;8.60;99.90;;;;;;4969815;28;20209;-67
2022/04/23 03:33:16;;;;;;;13.07;10.40;;;8.60;99.90;;;;;;4958354;28;20233;-67
2022/04/23 03:35:44;;;;;;;12.17;10.53;;;8.60;99.90;;;;;;4963324;28;20637;-67
2022/04/23 03:38:12;;;;;;;12.77;10.37;;;8.60;99.90;;;;;;4956006;28;20209;-68
2022/04/23 03:40:39;;;;;;;13.67;10.57;;;8.60;99.90;;;;;;4965573;28;20295;-68
2022/04/23 03:43:06;;;;;;;14.03;9.80;;;8.70;99.90;;;;;;4961344;28;20320;-66
2022/04/23 03:45:36;;;;;;;11.80;9.97;;;8.60;99.90;;;;;;4957285;28;20684;-67
2022/04/23 03:48:04;;;;;;;16.03;10.00;;;8.60;99.90;;;;;;4966884;28;20212;-66
2022/04/23 03:50:32;;;;;;;11.57;10.30;;;8.60;99.90;;;;;;4957562;28;20223;-67
2022/04/23 03:52:59;;;;;;;12.33;10.07;;;8.60;99.90;;;;;;4964359;28;20220;-68
2022/04/23 03:55:28;;;;;;;10.80;9.17;;;8.60;99.90;;;;;;4958797;28;20282;-67
2022/04/23 03:57:55;;;;;;;11.67;9.60;;;8.60;99.90;;;;;;4958422;28;20769;-68
2022/04/23 04:00:22;;;;;;;12.57;9.37;;;8.60;99.90;;;;;;4958500;28;20655;-67
2022/04/23 04:02:49;;;;;;;11.73;9.57;;;8.50;99.90;;;;;;4968961;28;20248;-68
2022/04/23 04:05:17;;;;;;;10.10;8.77;;;8.50;99.90;;;;;;4961194;28;20248;-67
2022/04/23 04:07:45;;;;;;;11.90;8.73;;;8.50;99.90;;;;;;4970779;28;20197;-67
2022/04/23 04:10:13;;;;;;;11.47;9.83;;;8.50;99.90;;;;;;4956665;28;20213;-66
2022/04/23 04:12:41;;;;;;;11.70;9.13;;;8.50;99.90;;;;;;4956406;28;20213;-67
2022/04/23 04:15:10;;;;;;;12.20;8.87;;;8.50;99.90;;;;;;4955185;28;20210;-67
2022/04/23 04:17:38;;;;;;;10.33;8.37;;;8.50;99.90;;;;;;4956771;28;20206;-67
2022/04/23 04:20:10;;;;;;;9.63;8.57;;;8.50;99.90;;;;;;4961582;28;20217;-67
2022/04/23 04:22:37;;;;;;;10.63;8.73;;;8.50;99.90;;;;;;4958276;28;20234;-67
2022/04/23 04:25:05;;;;;;;10.50;8.83;;;8.60;99.90;;;;;;4969019;28;20685;-68
2022/04/23 04:27:33;;;;;;;10.33;8.93;;;8.60;99.90;;;;;;4957171;28;20240;-67
2022/04/23 04:30:02;;;;;;;11.30;8.97;;;8.50;99.90;;;;;;4962808;28;20263;-68
2022/04/23 04:32:29;;;;;;;11.57;9.63;;;8.50;99.90;;;;;;4956530;28;20244;-67
2022/04/23 04:34:55;;;;;;;11.00;8.33;;;8.50;99.90;;;;;;4969717;28;20292;-68
2022/04/23 04:37:22;;;;;;;9.93;8.53;;;8.50;99.90;;;;;;4968468;28;20228;-67
2022/04/23 04:39:49;;;;;;;10.57;8.47;;;8.50;99.90;;;;;;4960098;28;20241;-67
2022/04/23 04:42:16;;;;;;;11.17;8.60;;;8.60;99.90;;;;;;4964263;28;20236;-67
2022/04/23 04:44:43;;;;;;;10.60;8.87;;;8.60;99.90;;;;;;4971242;28;20212;-67
2022/04/23 04:47:11;;;;;;;10.73;8.47;;;8.60;99.90;;;;;;4957983;28;20265;-68
2022/04/23 04:49:39;;;;;;;9.87;8.80;;;8.70;99.90;;;;;;4959337;28;20209;-66
2022/04/23 04:52:07;;;;;;;11.23;9.20;;;8.70;99.90;;;;;;4959023;28;20209;-67
2022/04/23 04:54:34;;;;;;;12.40;10.13;;;8.80;99.90;;;;;;4960550;28;20220;-67
2022/04/23 04:57:02;;;;;;;9.63;8.53;;;8.80;99.90;;;;;;4958635;28;20210;-67
2022/04/23 04:59:31;;;;;;;10.23;9.13;;;8.80;99.90;;;;;;4960495;28;20246;-67
2022/04/23 05:01:59;;;;;;;11.73;9.83;;;8.80;99.90;;;;;;4958901;28;20630;-67
2022/04/23 05:04:27;;;;;;;12.37;9.53;;;8.90;99.90;;;;;;4974752;28;20223;-68
2022/04/23 05:06:54;;;;;;;11.10;9.43;;;8.90;99.90;;;;;;4974327;28;20566;-68
2022/04/23 05:09:21;;;;;;;11.20;9.60;;;8.90;99.90;;;;;;4966451;28;20608;-67
2022/04/23 05:11:48;;;;;;;11.23;9.43;;;8.90;99.90;;;;;;4969512;28;20240;-68
2022/04/23 05:14:16;;;;;;;10.47;8.63;;;8.90;99.90;;;;;;4962605;28;20210;-67
2022/04/23 05:16:43;;;;;;;10.43;8.60;;;9.00;99.90;;;;;;4964638;28;20232;-67
2022/04/23 05:19:10;;;;;;;10.77;8.70;;;9.00;99.90;;;;;;4959506;28;20300;-68
2022/04/23 05:21:38;;;;;;;10.80;8.27;;;9.10;99.90;;;;;;4959112;28;20252;-68
2022/04/23 05:24:06;;;;;;;8.20;7.20;;;9.10;99.90;;;;;;4978438;28;20213;-67
2022/04/23 05:26:34;;;;;;;9.37;7.27;;;9.10;99.90;;;;;;4958961;28;20209;-68
2022/04/23 05:29:01;;;;;;;9.53;7.50;;;9.10;99.90;;;;;;4967902;28;20213;-68
2022/04/23 05:31:28;;;;;;;10.83;8.57;;;9.10;99.90;;;;;;4970946;28;20569;-68
2022/04/23 05:33:54;;;;;;;7.77;6.83;;;9.20;99.90;;;;;;4973789;28;20244;-67
2022/04/23 05:36:21;;;;;;;9.53;7.07;;;9.10;99.90;;;;;;4963465;28;20249;-68
2022/04/23 05:38:50;;;;;;;8.40;7.27;;;9.10;99.90;;;;;;4963988;28;20209;-67
2022/04/23 05:41:16;;;;;;;8.10;6.23;;;9.20;99.90;;;;;;4958183;28;20387;-67
2022/04/23 05:43:43;;;;;;;8.67;6.13;;;9.10;99.90;;;;;;4968383;28;20283;-67
2022/04/23 05:46:10;;;;;;;8.47;6.23;;;9.10;99.90;;;;;;4972125;28;20236;-67
2022/04/23 05:48:37;;;;;;;8.50;6.43;;;9.10;99.90;;;;;;4959066;28;20296;-68
2022/04/23 05:51:04;;;;;;;8.33;6.67;;;9.10;99.90;;;;;;4965444;28;20217;-68
2022/04/23 05:53:31;;;;;;;8.57;6.40;;;9.10;99.90;;;;;;4958969;28;20212;-67
2022/04/23 05:55:59;;;;;;;8.03;6.43;;;9.10;99.90;;;;;;4957234;28;20681;-67
2022/04/23 05:58:26;;;;;;;8.07;6.60;;;9.20;99.90;;;;;;4956469;28;20597;-70
2022/04/23 06:00:54;;;;;;;7.00;5.97;;;9.30;99.90;;;;;;4960975;28;20268;-67
2022/04/23 06:03:21;;;;;;;7.87;6.50;;;9.30;99.90;;;;;;4968223;28;20228;-69
2022/04/23 06:05:48;;;;;;;7.47;6.47;;;9.40;99.90;;;;;;4957875;28;20216;-68
2022/04/23 06:08:15;;;;;;;7.97;6.23;;;9.40;99.90;;;;;;4977683;28;20251;-68
2022/04/23 06:10:42;;;;;;;7.23;5.93;;;9.50;99.90;;;;;;4971761;28;20247;-69
2022/04/23 06:13:10;;;;;;;7.73;6.57;;;9.60;99.90;;;;;;4961930;28;20204;-69
2022/04/23 06:15:37;;;;;;;8.30;6.63;;;9.60;99.90;;;;;;4961395;28;20201;-68
2022/04/23 06:18:04;;;;;;;8.90;6.93;;;9.70;99.90;;;;;;4963209;28;20220;-69
2022/04/23 06:20:31;;;;;;;7.00;6.17;;;9.70;99.90;;;;;;4961407;28;20209;-67
2022/04/23 06:22:58;;;;;;;6.50;5.90;;;9.80;99.90;;;;;;4962760;28;20225;-69
2022/04/23 06:25:25;;;;;;;7.43;6.30;;;9.90;99.90;;;;;;4962170;28;20232;-69
2022/04/23 06:27:52;;;;;;;7.20;6.23;;;9.90;99.90;;;;;;4972083;28;20642;-68
2022/04/23 06:30:20;;;;;;;5.97;5.33;;;10.00;99.90;;;;;;4979062;28;20213;-68
2022/04/23 06:32:47;;;;;;;5.80;4.97;;;10.10;99.90;;;;;;4964551;28;20315;-67
2022/04/23 06:35:14;;;;;;;5.63;4.93;;;10.20;99.90;;;;;;4969464;28;20229;-71
2022/04/23 06:37:42;;;;;;;5.27;4.70;;;10.40;99.90;;;;;;4963461;28;20218;-67
2022/04/23 06:40:12;;;;;;;9.30;5.50;;;10.40;99.90;;;;;;4975902;28;20240;-67
2022/04/23 06:42:39;;;;;;;7.50;5.10;;;10.40;99.90;;;;;;4976562;28;20229;-68
2022/04/23 06:45:07;;;;;;;5.37;4.10;;;10.50;99.90;;;;;;4976330;28;20252;-69
2022/04/23 06:47:35;;;;;;;7.17;4.20;;;10.50;99.90;;;;;;4968341;28;20299;-66
2022/04/23 06:50:02;;;;;;;4.90;3.83;;;10.60;99.90;;;;;;4964866;28;20223;-68
2022/04/23 06:52:29;;;;;;;4.27;3.87;;;10.60;99.90;;;;;;4971156;28;20292;-68
2022/04/23 06:54:55;;;;;;;5.23;4.43;;;10.60;99.90;;;;;;4963403;28;20221;-67
2022/04/23 06:57:24;;;;;;;5.23;4.43;;;10.60;99.90;;;;;;4972318;28;20205;-66
2022/04/23 06:59:51;;;;;;;4.93;4.30;;;10.60;99.90;;;;;;4962765;28;20655;-68
2022/04/23 07:02:18;;;;;;;5.00;4.50;;;10.60;99.90;;;;;;4977055;28;20311;-67
2022/04/23 07:04:46;;;;;;;5.33;4.73;;;10.70;99.90;;;;;;4977955;28;20750;-68
2022/04/23 07:07:13;;;;;;;5.43;4.30;;;10.80;99.90;;;;;;4972992;28;20208;-68
2022/04/23 07:09:40;;;;;;;6.53;4.17;;;10.90;99.90;;;;;;4971180;28;20639;-69
2022/04/23 07:12:08;;;;;;;4.57;4.13;;;11.00;99.90;;;;;;4964900;28;20710;-68
2022/04/23 07:14:35;;;;;;;5.73;4.70;;;11.00;99.90;;;;;;4959030;28;20635;-68
2022/04/23 07:17:02;;;;;;;5.90;4.57;;;11.10;99.90;;;;;;4949168;29;20236;-69
2022/04/23 07:19:30;;;;;;;6.40;5.20;;;11.00;99.90;;;;;;4964589;28;20205;-68
2022/04/23 07:21:58;;;;;;;5.40;4.87;;;10.90;99.90;;;;;;4975980;28;20255;-68
2022/04/23 07:24:25;;;;;;;5.43;4.87;;;11.00;99.90;;;;;;4963053;28;20243;-67
2022/04/23 07:26:52;;;;;;;6.13;4.83;;;11.00;99.90;;;;;;4976884;28;20209;-68
2022/04/23 07:29:19;;;;;;;5.27;4.77;;;10.90;99.90;;;;;;4977367;28;20298;-69
2022/04/23 07:31:45;;;;;;;7.50;5.37;;;10.90;99.90;;;;;;4977327;28;20327;-68
2022/04/23 07:39:44;;;;;;;4.40;4.00;;;11.00;99.90;;;;;;4962821;28;20243;-67
2022/04/23 07:42:11;;;;;;;4.20;3.80;;;11.00;99.90;;;;;;4977034;28;20677;-68
2022/04/23 07:44:38;;;;;;;4.93;4.40;;;11.00;99.90;;;;;;4967342;28;20740;-68
2022/04/23 07:47:06;;;;;;;5.30;4.73;;;11.00;99.90;;;;;;4959534;28;20209;-70
2022/04/23 07:49:33;;;;;;;4.83;4.40;;;11.00;99.90;;;;;;4974408;28;20235;-68
2022/04/23 07:52:01;;;;;;;4.47;4.03;;;11.00;99.90;;;;;;4972222;28;20209;-69
2022/04/23 07:54:28;;;;;;;4.87;4.37;;;11.00;99.90;;;;;;4971936;28;20252;-68
2022/04/23 07:56:55;;;;;;;5.20;4.70;;;11.00;99.90;;;;;;4964415;28;20292;-69
2022/04/23 07:59:23;;;;;;;6.37;4.50;;;11.00;99.90;;;;;;4967347;28;20236;-69
2022/04/23 08:01:51;;;;;;;4.80;4.30;;;11.00;99.90;;;;;;4973671;28;20213;-72
2022/04/23 08:04:17;;;;;;;5.90;4.53;;;11.00;99.90;;;;;;4969616;28;20226;-71
2022/04/23 08:06:44;;;;;;;5.53;4.63;;;10.90;99.90;;;;;;4961343;28;20209;-71
2022/04/23 08:09:12;;;;;;;4.80;4.33;;;10.90;99.90;;;;;;4966376;28;20288;-73
2022/04/23 08:11:39;;;;;;;7.27;4.93;;;11.00;99.90;;;;;;4958072;28;20216;-69
2022/04/23 08:14:06;;;;;;;5.37;4.77;;;10.90;99.90;;;;;;4958810;28;20213;-70
2022/04/23 08:16:33;;;;;;;7.57;4.60;;;10.90;99.90;;;;;;4959246;28;20209;-70
2022/04/23 08:19:00;;;;;;;4.80;4.40;;;10.90;99.90;;;;;;4959399;28;20201;-68
2022/04/23 08:21:27;;;;;;;5.07;4.57;;;10.90;99.90;;;;;;4944034;29;20812;-67
2022/04/23 08:23:54;;;;;;;5.73;5.03;;;10.90;99.90;;;;;;4966542;28;20228;-70
2022/04/23 08:26:23;;;;;;;4.37;3.97;;;10.90;99.90;;;;;;4978211;28;20260;-69
2022/04/23 08:31:45;;;;;;;5.27;4.63;;;10.90;99.90;;;;;;4912735;29;20211;-69
2022/04/23 08:34:13;;;;;;;5.30;4.80;;;10.80;99.90;;;;;;4957563;28;20628;-69
2022/04/23 08:36:39;;;;;;;7.37;6.17;;;10.70;99.90;;;;;;4964709;28;20240;-67
2022/04/23 08:39:08;;;;;;;6.50;5.80;;;10.80;99.90;;;;;;4962106;28;20209;-67
2022/04/23 08:41:36;;;;;;;5.70;5.10;;;10.70;99.90;;;;;;4977047;28;20306;-68
2022/04/23 08:44:06;;;;;;;5.97;5.37;;;10.70;99.90;;;;;;4977645;28;20599;-68
2022/04/23 08:46:35;;;;;;;7.93;5.90;;;10.70;99.90;;;;;;4971249;28;20213;-68
2022/04/23 08:49:13;;;;;;;7.00;6.17;;;10.70;99.90;;;;;;4956490;29;20205;-67
2022/04/23 08:51:43;;;;;;;5.23;4.73;;;10.70;99.90;;;;;;4976828;28;20575;-68
2022/04/23 08:54:11;;;;;;;6.13;5.53;;;10.60;99.90;;;;;;4974244;28;20250;-69
2022/04/23 08:56:41;;;;;;;7.20;6.37;;;10.60;99.90;;;;;;4973914;28;20750;-68
2022/04/23 08:59:08;;;;;;;7.47;6.20;;;10.70;99.90;;;;;;4969334;28;20567;-69
2022/04/23 09:01:36;;;;;;;6.93;5.80;;;10.60;99.90;;;;;;4966786;28;20209;-68
2022/04/23 09:04:04;;;;;;;9.30;6.37;;;10.70;99.90;;;;;;4974799;28;20243;-70
2022/04/23 09:06:40;;;;;;;8.00;5.87;;;10.70;99.90;;;;;;4976783;28;20613;-69
2022/04/23 09:09:12;;;;;;;6.20;5.60;;;10.70;99.90;;;;;;4959799;28;20216;-68
2022/04/23 09:11:42;;;;;;;6.10;5.50;;;10.70;99.90;;;;;;4968021;28;20221;-67
2022/04/23 09:14:10;;;;;;;7.00;5.77;;;10.70;99.90;;;;;;4970656;28;20738;-68
2022/04/23 09:25:07;;;;;;;5.40;4.50;;;10.70;99.90;;;;;;4963071;28;20782;-70
2022/04/23 09:27:35;;;;;;;6.10;5.30;;;10.70;99.90;;;;;;4960168;28;20224;-67
2022/04/23 09:30:05;;;;;;;5.17;4.67;;;10.70;99.90;;;;;;4965895;28;20239;-69
2022/04/23 09:32:32;;;;;;;5.07;4.17;;;10.80;99.90;;;;;;4967261;28;20213;-68
2022/04/23 09:35:08;;;;;;;5.00;4.47;;;11.00;99.90;;;;;;4964854;28;20236;-69
2022/04/23 09:40:21;;;;;;;6.53;5.80;;;12.00;99.90;;;;;;4954985;28;20282;-67
2022/04/23 09:42:57;;;;;;;5.47;4.60;;;12.80;99.90;;;;;;4963282;28;20252;-69
2022/04/23 09:45:26;;;;;;;5.60;4.13;;;13.60;99.90;;;;;;4972145;28;20211;-67
2022/04/23 09:47:54;;;;;;;4.37;3.90;;;14.20;99.90;;;;;;4979128;28;20300;-68
2022/04/23 09:50:20;;;;;;;4.20;3.73;;;14.60;99.90;;;;;;4967256;28;20585;-69
2022/04/23 09:52:49;;;;;;;4.47;4.03;;;14.80;99.90;;;;;;4973036;28;20236;-68
2022/04/23 09:55:18;;;;;;;3.90;3.60;;;14.90;99.90;;;;;;4978336;28;20217;-68
2022/04/23 09:57:46;;;;;;;4.17;3.77;;;14.80;99.90;;;;;;4978579;28;20212;-68
2022/04/23 10:00:15;;;;;;;4.93;4.37;;;14.80;99.90;;;;;;4970936;28;20235;-69
2022/04/23 10:02:45;;;;;;;4.83;4.07;;;14.70;99.90;;;;;;4977868;28;20274;-68
2022/04/23 10:05:13;;;;;;;5.33;4.47;;;14.40;99.90;;;;;;4959489;28;20319;-67
2022/04/23 10:07:42;;;;;;;5.07;4.03;;;14.10;99.90;;;;;;4959186;28;20575;-69
2022/04/23 10:10:14;;;;;;;3.73;3.30;;;13.90;99.90;;;;;;4958435;28;20249;-69
2022/04/23 10:12:44;;;;;;;3.87;3.37;;;13.70;99.90;;;;;;4972766;28;20209;-68
2022/04/23 10:15:12;;;;;;;4.27;3.40;;;13.60;99.90;;;;;;4958810;28;20201;-69
2022/04/23 10:17:41;;;;;;;3.37;2.93;;;13.50;99.90;;;;;;4958671;28;20210;-69
2022/04/23 10:20:11;;;;;;;2.40;2.20;;;13.50;99.90;;;;;;4958943;28;20213;-68
2022/04/23 10:22:51;;;;;;;2.63;2.30;;;13.50;99.90;;;;;;4964425;28;20228;-69
2022/04/23 10:25:30;;;;;;;3.00;2.70;;;13.50;99.90;;;;;;4961148;28;20260;-68
2022/04/23 10:27:59;;;;;;;4.87;3.07;;;13.60;99.80;;;;;;4959543;28;20303;-69
2022/04/23 10:30:28;;;;;;;3.30;2.90;;;13.60;99.20;;;;;;4959376;28;20205;-68
2022/04/23 10:32:56;;;;;;;3.27;2.97;;;13.50;98.90;;;;;;4974331;28;20209;-67
2022/04/23 10:35:33;;;;;;;2.77;2.57;;;13.50;98.80;;;;;;4978243;28;20240;-68
2022/04/23 10:38:20;;;;;;;4.47;2.90;;;13.40;98.70;;;;;;4965308;28;20655;-69
2022/04/23 10:40:47;;;;;;;3.20;2.90;;;13.40;98.70;;;;;;4955575;28;20272;-69
2022/04/23 10:43:19;;;;;;;3.40;2.87;;;13.30;98.50;;;;;;4957759;28;20213;-67
2022/04/23 10:45:48;;;;;;;3.30;2.80;;;13.20;98.50;;;;;;4959028;28;20270;-68
2022/04/23 10:48:27;;;;;;;3.67;3.27;;;13.20;98.60;;;;;;4973132;28;20224;-68
2022/04/23 10:51:15;;;;;;;3.37;3.07;;;13.10;98.90;;;;;;4958712;28;20252;-68
2022/04/23 10:53:57;;;;;;;4.03;3.13;;;13.10;99.30;;;;;;4960854;28;20201;-68
2022/04/23 10:56:26;;;;;;;4.87;3.90;;;13.10;99.40;;;;;;4959236;28;20228;-69
2022/04/23 10:58:53;;;;;;;4.27;3.87;;;12.90;99.30;;;;;;4971924;28;20209;-68
2022/04/23 11:01:25;;;;;;;4.50;4.10;;;12.90;99.40;;;;;;4958916;28;20300;-69
2022/04/23 11:04:13;;;;;;;3.80;3.50;;;12.90;99.70;;;;;;4959748;28;20308;-68
2022/04/23 11:12:33;;;;;;;4.13;3.40;;;12.70;99.90;;;;;;4957132;28;20207;-68
2022/04/23 11:15:01;;;;;;;3.47;3.17;;;12.60;99.90;;;;;;4966730;28;20696;-69
2022/04/23 11:17:49;;;;;;;3.77;3.40;;;12.60;99.90;;;;;;4964899;28;20251;-68
2022/04/23 11:20:38;;;;;;;3.87;3.40;;;12.50;99.90;;;;;;4976795;28;20240;-68
2022/04/23 11:23:06;;;;;;;4.00;3.53;;;12.50;99.90;;;;;;4967977;28;20217;-68
2022/04/23 11:25:34;;;;;;;3.63;3.33;;;12.50;99.90;;;;;;4969454;28;20235;-67
2022/04/23 11:28:14;;;;;;;4.47;3.50;;;12.50;99.90;;;;;;4961237;28;20206;-66
2022/04/23 11:30:41;;;;;;;3.73;3.20;;;12.60;99.90;;;;;;4959319;28;20208;-69
2022/04/23 11:33:12;;;;;;;4.07;3.67;;;12.60;99.90;;;;;;4968006;28;20642;-69
2022/04/23 11:35:41;;;;;;;4.10;3.13;;;12.60;99.90;;;;;;4964800;28;20645;-69
2022/04/23 11:38:22;;;;;;;3.50;3.07;;;12.60;99.90;;;;;;4966278;28;20255;-69
2022/04/23 11:40:48;;;;;;;3.27;2.97;;;12.60;99.90;;;;;;4965485;28;21181;-70
2022/04/23 11:43:37;;;;;;;3.20;2.90;;;12.60;99.90;;;;;;4963976;28;20244;-70
2022/04/23 11:46:07;;;;;;;4.87;3.47;;;12.70;99.90;;;;;;4958840;28;20201;-70
2022/04/23 11:48:46;;;;;;;3.50;3.17;;;12.80;99.90;;;;;;4964859;28;20208;-70
2022/04/23 11:51:15;;;;;;;5.10;3.03;;;12.80;99.90;;;;;;4962763;28;20554;-70
2022/04/23 11:53:58;;;;;;;3.47;2.67;;;12.90;99.90;;;;;;4962752;28;20200;-69
2022/04/23 11:56:33;;;;;;;3.20;2.90;;;12.80;99.80;;;;;;4965370;28;20240;-70
2022/04/23 11:59:03;;;;;;;3.77;3.33;;;12.90;99.60;;;;;;4970484;28;20449;-67
2022/04/23 12:01:30;;;;;;;2.80;2.60;;;12.90;99.20;;;;;;4975923;28;20224;-68
2022/04/23 12:03:58;;;;;;;2.80;2.10;;;13.00;99.20;;;;;;4970916;28;20331;-68
2022/04/23 12:06:28;;;;;;;2.70;2.50;;;13.30;99.60;;;;;;4981188;28;20242;-69
2022/04/23 12:09:06;;;;;;;3.10;2.77;;;13.70;99.50;;;;;;4974861;28;20272;-70
2022/04/23 12:11:33;;;;;;;5.40;3.10;;;14.40;98.50;;;;;;4973774;28;20577;-69
2022/04/23 12:14:02;;;;;;;2.47;2.27;;;14.90;97.00;;;;;;4961242;28;20223;-70
2022/04/23 12:16:37;;;;;;;3.23;2.80;;;15.40;96.20;;;;;;4973642;28;20217;-70
2022/04/23 12:19:06;;;;;;;3.00;2.30;;;16.00;96.00;;;;;;4959693;28;20200;-69
2022/04/23 12:21:35;;;;;;;2.70;2.50;;;16.50;93.60;;;;;;4972074;28;20271;-69
2022/04/23 12:24:02;;;;;;;3.43;2.50;;;17.00;91.60;;;;;;4961171;28;20243;-70
2022/04/23 12:26:34;;;;;;;2.70;2.40;;;17.30;88.20;;;;;;4961835;28;20718;-71
2022/04/23 12:43:28;;;;;;;2.90;2.60;;;17.40;78.90;;;;;;4968523;28;20207;-71
2022/04/23 12:46:06;;;;;;;2.75;2.17;;;17.50;79.20;;;;;;4965306;28;20209;-69
2022/04/23 12:48:34;;;;;;;2.57;2.37;;;17.40;77.00;;;;;;4960775;28;20213;-71
2022/04/23 12:51:06;;;;;;;2.95;2.55;;;17.20;77.20;;;;;;4970808;28;20216;-72
2022/04/23 12:53:37;;;;;;;3.13;2.43;;;16.80;77.00;;;;;;4966255;28;20205;-71
2022/04/23 12:56:08;;;;;;;4.28;3.10;;;16.60;78.00;;;;;;4965062;28;20684;-71
2022/04/23 12:58:35;;;;;;;5.60;3.88;;;16.50;78.50;;;;;;4958998;28;20221;-71
2022/04/23 13:01:01;;;;;;;6.57;5.50;;;16.50;78.80;;;;;;4961923;28;20207;-71
2022/04/23 13:03:35;;;;;;;3.38;2.97;;;16.50;78.80;;;;;;4966974;28;20296;-70
2022/04/23 13:06:04;;;;;;;2.80;2.45;;;16.40;78.50;;;;;;4968718;28;20212;-72
2022/04/23 13:11:26;;;;;;;2.13;2.00;;;16.10;78.40;;;;;;4965725;28;20247;-70
2022/04/23 13:13:55;;;;;;;2.70;2.50;;;16.10;79.10;;;;;;4962106;28;20206;-72
2022/04/23 13:16:24;;;;;;;2.50;2.30;;;16.10;78.80;;;;;;4973539;28;20300;-70
2022/04/23 13:18:54;;;;;;;2.53;2.30;;;16.20;78.50;;;;;;4967801;28;20247;-71
2022/04/23 13:21:21;;;;;;;2.57;2.37;;;16.10;78.00;;;;;;4970713;28;20240;-71
2022/04/23 13:23:49;;;;;;;2.23;2.03;;;16.00;78.20;;;;;;4959963;28;20337;-71
2022/04/23 13:26:17;;;;;;;3.13;2.60;;;16.10;78.90;;;;;;4967717;28;20201;-70
2022/04/23 13:28:44;;;;;;;3.10;1.90;;;16.30;78.80;;;;;;4958026;28;20320;-69
2022/04/23 13:31:11;;;;;;;1.80;1.70;;;16.60;79.10;;;;;;4959590;28;20224;-71
2022/04/23 13:33:38;;;;;;;2.30;2.10;;;16.80;77.60;;;;;;4971396;28;20247;-69
2022/04/23 13:36:06;;;;;;;2.63;1.60;;;16.80;76.80;;;;;;4958879;28;20655;-70